Terminal Aerodrome Forecast
Issued by NWS Quad Cities IA IL

Home | Current Version | Previous Version | Text Only | Print | Product List | Glossary On
Versions: 1 2 3 4 5 6 7 8 9 10 11 12 13 14 15 16 17 18 19 20 21 22 23 24 25 26 27 28 29 30 31 32
000
FTUS43 KDVN 282337
TAFDBQ
TAF
KDBQ 282337Z 2900/2924 04007KT 4SM BR VCSH OVC006
      TEMPO 2900/2903 2SM -RA BR OVC004
     FM290400 04004KT 2SM BR OVC003
     FM291400 03007KT 5SM BR BKN010
     FM291700 06008KT P6SM BKN025=

USA.gov is the U.S. government's official web portal to all federal, state and local government web resources and services.